»·PEaware :: TPX810 KSBA-KLAS

TPX810 :: KSBA-KLAS

FLIGHT INFORMATION

Flight Status: Arrived
Operator: ATP Experience
More flights by this operator :: More flights under this callsign
Pilot: Dave P. (45)
Aircraft: BOEING 737-800
(B738)
More flights by this aircraft type
Origin: KSBA Santa Barbara Mun
United States
Destination: KLAS McCarran Intl
United States
More flights between these airports :: More routes between these airports
Route: +MISHN2 NNAVY MISEN KEPEC6
File this flight plan on PilotEdge
Remarks: PBN / A1B1C1D1S1S2 DOF / 180819 REG / N738PM OPR / TPX PER / D RMK / TCAS SIMBRIEF
Altitude:
(Current/Filed)
29,000ft
Speed:
(Current/Filed)
459kts
Departed: 19-Aug-18 07:59 AM
Arrived: 19-Aug-18 08:53 AM
Distance/Time
Traveled:
251nm/0:54
Distance/Time
To Go:
Arrived

Flight Plot

Page will automatically refresh every two minutes.

Flight plan parsing failed; only flown route is shown


Map Options




Map Legend


Flown Route
Filed Route
Departure Airport
Arrival Airport
Navaid (VOR, NDB)
Fix

Horizontal Profiles

Position Reports

Time Latitude Longitude Heading Altitude Ground
Speed
19-Aug-18 07:45 34.426278 -119.836573 177 18ft 0kts
19-Aug-18 07:46 34.426278 -119.836573 177 18ft 0kts
19-Aug-18 07:47 34.426278 -119.836573 177 18ft 0kts
19-Aug-18 07:48 34.426278 -119.836573 177 18ft 0kts
19-Aug-18 07:49 34.426278 -119.836573 177 18ft 0kts
19-Aug-18 07:50 34.426278 -119.836573 177 18ft 0kts
19-Aug-18 07:51 34.426436 -119.836581 177 18ft 2kts
19-Aug-18 07:52 34.426460 -119.836582 177 18ft 0kts
19-Aug-18 07:53 34.426460 -119.836582 177 18ft 0kts
19-Aug-18 07:54 34.426459 -119.836582 177 18ft 0kts
19-Aug-18 07:55 34.426353 -119.836751 281 18ft 5kts
19-Aug-18 07:56 34.426733 -119.842100 268 18ft 20kts
19-Aug-18 07:57 34.426614 -119.848000 268 18ft 14kts
19-Aug-18 07:58 34.426897 -119.851777 344 18ft 0kts
19-Aug-18 07:59 34.427183 -119.851852 355 18ft 8kts
19-Aug-18 08:00 34.427979 -119.832369 88 182ft 157kts
19-Aug-18 08:01 34.406477 -119.786163 137 2459ft 201kts
19-Aug-18 08:02 34.359793 -119.737082 137 2869ft 254kts
19-Aug-18 08:03 34.301524 -119.676187 137 5755ft 292kts
19-Aug-18 08:04 34.249104 -119.621548 137 7873ft 305kts
19-Aug-18 08:05 34.198557 -119.542602 95 10165ft 301kts
19-Aug-18 08:06 34.200666 -119.413324 87 12018ft 368kts
19-Aug-18 08:07 34.204639 -119.308377 87 14324ft 377kts
19-Aug-18 08:08 34.209406 -119.179274 87 16819ft 392kts
19-Aug-18 08:09 34.225913 -119.023926 76 19408ft 409kts
19-Aug-18 08:10 34.248934 -118.910697 76 21079ft 420kts
19-Aug-18 08:11 34.276626 -118.771551 76 22881ft 432kts
19-Aug-18 08:12 34.305026 -118.628664 76 24485ft 443kts
19-Aug-18 08:13 34.334073 -118.481792 76 25951ft 452kts
19-Aug-18 08:14 34.363345 -118.333102 76 27074ft 456kts
19-Aug-18 08:15 34.392329 -118.183171 76 27520ft 463kts
19-Aug-18 08:16 34.422457 -118.032455 72 29051ft 461kts
19-Aug-18 08:17 34.474414 -117.891035 64 29084ft 459kts
19-Aug-18 08:18 34.529058 -117.750738 64 29100ft 459kts
19-Aug-18 08:19 34.583344 -117.610530 64 29107ft 460kts
19-Aug-18 08:20 34.637673 -117.470152 64 29127ft 460kts
19-Aug-18 08:21 34.691878 -117.328933 64 29130ft 460kts
19-Aug-18 08:22 34.745700 -117.187961 64 29135ft 461kts
19-Aug-18 08:23 34.799736 -117.046215 64 29115ft 460kts
19-Aug-18 08:24 34.853289 -116.904744 64 29075ft 461kts
19-Aug-18 08:25 34.906253 -116.763743 64 29042ft 453kts
19-Aug-18 08:26 34.972178 -116.635001 54 28076ft 437kts
19-Aug-18 08:27 35.040215 -116.514630 54 25994ft 425kts
19-Aug-18 08:28 35.107340 -116.398488 48 24017ft 411kts
19-Aug-18 08:29 35.186696 -116.297842 44 22452ft 408kts
19-Aug-18 08:30 35.264895 -116.199783 44 20956ft 399kts
19-Aug-18 08:31 35.341563 -116.103158 44 19479ft 390kts
19-Aug-18 08:32 35.416525 -116.008947 45 18042ft 382kts
19-Aug-18 08:33 35.489733 -115.916651 45 16583ft 373kts
19-Aug-18 08:34 35.561154 -115.825970 45 15200ft 362kts
19-Aug-18 08:35 35.628042 -115.740638 46 13910ft 326kts
19-Aug-18 08:36 35.688823 -115.663048 46 13003ft 307kts
19-Aug-18 08:37 35.749794 -115.588299 31 12983ft 311kts
19-Aug-18 08:38 35.834408 -115.570711 2 13004ft 312kts
19-Aug-18 08:39 35.921629 -115.566301 2 13008ft 312kts
19-Aug-18 08:40 35.991388 -115.516576 69 12474ft 315kts
19-Aug-18 08:41 36.018054 -115.416355 68 11419ft 293kts
19-Aug-18 08:42 36.027460 -115.321090 94 10360ft 278kts
19-Aug-18 08:43 36.020342 -115.226732 94 9267ft 274kts
19-Aug-18 08:44 36.013953 -115.134495 93 8433ft 263kts
19-Aug-18 08:45 36.008567 -115.050621 93 7945ft 221kts
19-Aug-18 08:46 36.003833 -114.976018 93 7854ft 219kts
19-Aug-18 08:47 35.999149 -114.901943 93 6340ft 215kts
19-Aug-18 08:48 36.007974 -114.833886 32 5947ft 213kts
19-Aug-18 08:49 36.054198 -114.857550 293 5602ft 206kts
19-Aug-18 08:50 36.073186 -114.918472 289 4977ft 187kts
19-Aug-18 08:51 36.073852 -114.984389 269 4400ft 193kts
19-Aug-18 08:52 36.073724 -115.047960 269 3400ft 168kts
19-Aug-18 08:53 36.073676 -115.103188 270 2564ft 155kts
19-Aug-18 08:54 36.073640 -115.147119 269 2189ft 35kts
19-Aug-18 08:55 36.074789 -115.150675 300 2189ft 11kts
19-Aug-18 08:56 36.077133 -115.152274 21 2189ft 6kts
19-Aug-18 08:57 36.078666 -115.150128 93 2189ft 18kts
19-Aug-18 08:58 36.078340 -115.144802 94 2189ft 15kts
19-Aug-18 08:59 36.078237 -115.140259 90 2189ft 10kts
19-Aug-18 09:00 36.080107 -115.137936 47 2189ft 9kts
19-Aug-18 09:01 36.081099 -115.137995 322 2189ft 0kts
19-Aug-18 09:02 36.081099 -115.137995 322 2189ft 0kts
19-Aug-18 09:03 36.081099 -115.137995 322 2189ft 0kts
19-Aug-18 09:04 36.081099 -115.137995 322 2189ft 0kts

Navigation Log

Ident Type
Flight plan parsing failed, navigation log unavailable